Terminal Aerodrome Forecast
Issued by NWS Northern Indiana

Home | Current Version | Previous Version | Graphics & Text | Print | Product List | Glossary On
Versions: 1 2 3 4 5 6 7 8 9 10 11 12 13 14 15 16 17 18
958
FTUS43 KIWX 281734
TAFFWA
TAF
KFWA 281734Z 2818/2918 07012KT P6SM OVC012
     FM290400 04004KT 6SM BR OVC008
      TEMPO 2909/2913 2SM -DZ BR OVC004
     FM291400 32005KT P6SM OVC012
     FM291700 34006KT P6SM BKN020=

USA.gov is the U.S. government's official web portal to all federal, state and local government web resources and services.